createdAt,value
2022-09-03T00:15:43.543Z,47.4
2022-09-03T00:35:43.513Z,47.7
2022-09-03T00:55:43.508Z,47.9
2022-09-03T01:15:43.547Z,47.8
2022-09-03T01:35:43.496Z,48.7
2022-09-03T01:55:43.463Z,49.6
2022-09-03T02:15:43.571Z,50.6
2022-09-03T02:35:43.451Z,50.8
2022-09-03T03:55:43.411Z,52.7
2022-09-03T04:15:43.410Z,53.6
2022-09-03T04:55:43.432Z,56
2022-09-03T07:15:43.334Z,53.8
2022-09-03T07:35:43.336Z,51.9
2022-09-03T08:35:43.277Z,46.7
2022-09-03T08:55:43.289Z,46.7
2022-09-03T09:35:43.277Z,40.5
2022-09-03T09:55:43.323Z,40.1
2022-09-03T10:15:43.327Z,38.7
2022-09-03T11:15:43.258Z,38.9
2022-09-03T11:35:43.205Z,38.8
2022-09-03T11:55:43.795Z,38.6
2022-09-03T12:15:43.252Z,39.5
2022-09-03T12:35:59.285Z,38.8
2022-09-03T12:55:43.161Z,39.5
2022-09-03T13:15:43.181Z,39.5
2022-09-03T13:55:43.127Z,40.2
2022-09-03T14:35:43.115Z,43.9
2022-09-03T14:55:43.115Z,43.8
2022-09-03T15:15:43.143Z,44.4
2022-09-03T15:35:43.084Z,44.1
2022-09-03T15:55:43.079Z,44.3
2022-09-03T16:15:43.066Z,44.6
2022-09-03T16:35:43.059Z,44.5
2022-09-03T16:55:43.071Z,44.8
2022-09-03T17:35:43.015Z,46.2
2022-09-03T17:55:43.010Z,47.3
2022-09-03T18:15:43.042Z,48.3
2022-09-03T18:35:42.983Z,48.6
2022-09-03T18:55:42.961Z,49.2
2022-09-03T19:15:43.031Z,49.5
2022-09-03T19:35:42.936Z,54.5
2022-09-03T19:55:42.935Z,60.6
2022-09-03T20:15:43.035Z,63
2022-09-03T20:35:42.921Z,64.6
2022-09-03T20:55:42.915Z,65.1
2022-09-03T21:15:42.979Z,65.5
2022-09-03T21:35:42.925Z,67
2022-09-03T21:55:42.889Z,67.9
2022-09-03T22:15:42.874Z,70.9
2022-09-03T22:35:42.881Z,71.8
2022-09-03T23:15:42.837Z,74.9
2022-09-03T23:35:42.845Z,72.8
2022-09-03T23:55:42.878Z,69.2
